Барановичи

Карта отелей и гостиниц, располагающихся рядом с аэропортом Барановичи :

Барановичи Брестская область 53° 5' 41.1612" N, 26° 2' 47.4" E
Барановичи Брестская область 53° 5' 41.1612" N, 26° 2' 47.4" E
Код аэродрома ИКАО
UMMA
Код аэродрома RU
УММА
Координаты
N53.09477° E026.04650°
Превышение над уровнем моря
184
Основная полоса
04L/22R
Курс магнитный
037,2/217,2
Длина основной ВПП
3000
Ширина основной ВПП
55
Покрытие основной ВПП
Твёрдое (бетон)
Освещение ВПП
По запросу
Тип: 
Аэродром
Класс аэродрома: 
Принадлежность: 
МО
Статус: 
Действующий
Сайт: 
E-mail аэродрома: 
Страна: 
Беларусь
Регион: 
Брестская область
Город: 
Дополнительная информация: 
Оператор: МО РБ. 61-я истребительная авиабаза. Военный индекс XMMA / ЬММА.

Найти трансфер

С помощью этой формы Вы можете найти трансфер из аэропорта Барановичи в город, аэропорт или вокзал:

Погода в аэропортах:

Авиационная погода в Магнитогорске

Погода METAR: 
USCM 221800Z 31002MPS 4700 BR SCT040 M20/M21 Q1028 R18/090060 TEMPO 0300 FZFG VV002 RMK QFE733
Время наблюдения
2022-01-22T18:00:00Z
Температура C
-20.0
Точка росы
-21.0
Направление ветра
310
Скорость ветра (узлы)
4
Метео видимость
2.92
Облачность
SCT
Нижняя граница облачности (футы)
4000
Явления погоды
BR
Условия полета
IFR
Аэропорт подробнее: 
SCT – разбросанная отдельная облачность;
BR – дымка (видимость от 1 до 9 км);

Авиационная погода в Берлевоге

Регион: 
Погода METAR: 
ENBV 221150Z 23036G47KT 9999 BLSN SCT040 BKN053 M06/M09 Q1002
Время наблюдения
2022-01-22T11:50:00Z
Температура C
-6.0
Точка росы
-9.0
Направление ветра
230
Скорость ветра (узлы)
36
Метео видимость
6.21
Облачность
SCT
BKN
Нижняя граница облачности (футы)
4000
5300
Явления погоды
BLSN
Условия полета
VFR
SCT – разбросанная отдельная облачность; BKN – значительная (рассеянная, разорванная) облачность;
BLSN – метель низовая или общая;

Авиационная погода в Усть-Каменогорске

Регион: 
Погода METAR: 
UASK 221800Z 00000MPS 0050 R30/M0200 FZFG BKN001 M26/M28 Q1031 NOSIG RMK QBB050 QFE747/0996
Время наблюдения
2022-01-22T18:00:00Z
Температура C
-26.0
Точка росы
-28.0
Направление ветра
0
Скорость ветра (узлы)
0
Метео видимость
0.03
Облачность
BKN
Нижняя граница облачности (футы)
100
Явления погоды
FZFG
Условия полета
LIFR
Аэропорт подробнее: 
BKN – значительная (рассеянная, разорванная) облачность;
FZFG - переохлаждённый туман;

Авиационная погода в Брянске

Регион: 
Погода METAR: 
UUBP 221800Z AUTO 24002MPS 9999 -SN M09/M10 Q1009 RMK QFE739/0986
Время наблюдения
2022-01-22T18:00:00Z
Температура C
-9.0
Точка росы
-10.0
Направление ветра
240
Скорость ветра (узлы)
4
Метео видимость
6.21
Облачность
Нижняя граница облачности (футы)
Явления погоды
-SN
Условия полета
Аэропорт подробнее: 
-SN – слабый снег;